Eielson Air Force Base
PAEI : rendu visible

Aérodrome :











RETROUVEZ-NOUS SUR...

 
LOGIN :

S'inscrire | Disclaimer

   EN    FR    IT 

 









Légende :    VFR   VFR Marginal   IFR   IFR Intensif   IFR Très Intensif
Visi : 
Plafond : 
>= 8 km
>= 3000ft
5 à 8 km
1000 à 3000 ft
1500m à 5 km
500 à 1000 ft
800 à 1500m
200 à 500 ft
< 800m
< 200 ft
Symboles :   Orages  Brouillard  Fortes neiges  Fortes précipitations  Vent > 20 kt






- Altitude de l'aérodrome : 547 ft
- Code IATA : EIL


PAEI - Eielson Air Force Base

DERNIER METAR :
  • 030056Z 03015KT 10SM BKN055 17/06 A2956 RMK AO2A SLP015 T01660058 $

METARs EXPIRÉS :
  • 030041Z 01006KT 10SM BKN055 BKN090 18/05 A2956 RMK AO2A SLP014 $
  • 022356Z 14006KT 10SM SCT040 SCT100 BKN120 18/05 A2956 RMK AO2A SLP014 60001 T01760045 10182 20129 52007 $
  • 022256Z 12004KT 10SM SCT040 BKN110 17/05 A2955 RMK AO2A SLP011 T01700050 $

TAF AMD TAF PAEI
Valide du 02 à 23h jusqu'au 04 à 04h UTC


022345Z 0223/0404 VRB06KT 9999 VCSH SCT040 BKN100 QNH2956INS
TEMPO 0223/0304 VRB15G25KT 9000 -SHRA VCTS BKN040CB
BECMG 0307/0308 VRB04KT 9999 VCSH BKN055 BKN100 610609 QNH2966INS
TEMPO 0316/0318 9000 -SHRA
BECMG 0318/0319 28012KT 8000 -RA BR SCT010 BKN025 BKN050 620609 QNH2979INS TX18/0223Z TN04/0314Z
FIR PAZA / Amérique du Nord



MET'MAP, la Météo Aéronautique d'un coup d'oeil ! - Copyright ORBIFLY Décembre 2007 - Disclaimer

ORBIFLY MET'MAP TEAM :

Programmation & Développement : Alexandra Zaïnal
Sur une idée originale de : Baudouin d'Aumeries
Assistance à la programmation : Marc-Olivier Méhu
Soutien technique & logistique : Manuel Goepfert

Contact : metmap@orbifly.com




SOURCES & CREDITS :

   NOAA       Earth
Advisory